createdAt,value
2018-07-13T00:00:41.026Z,14.43
2018-07-13T00:03:10.293Z,14.17
2018-07-13T00:05:39.546Z,15.90
2018-07-13T00:08:08.707Z,15.57
2018-07-13T00:10:37.810Z,15.30
2018-07-13T00:13:07.013Z,21.03
2018-07-13T00:15:38.447Z,16.47
2018-07-13T00:18:07.663Z,16.53
2018-07-13T00:20:36.759Z,15.97
2018-07-13T00:23:06.026Z,15.23
2018-07-13T00:25:35.176Z,16.83
2018-07-13T00:28:04.479Z,17.57
2018-07-13T00:30:33.650Z,17.57
2018-07-13T00:33:02.746Z,17.70
2018-07-13T00:35:32.168Z,18.83
2018-07-13T00:38:01.263Z,17.63
2018-07-13T00:40:30.560Z,16.37
2018-07-13T00:42:59.785Z,18.17
2018-07-13T00:45:29.158Z,16.27
2018-07-13T00:47:58.224Z,17.60
2018-07-13T00:50:27.431Z,22.97
2018-07-13T00:52:56.729Z,17.73
2018-07-13T00:55:26.267Z,17.10
2018-07-13T00:57:55.355Z,17.30
2018-07-13T01:00:33.285Z,18.17
2018-07-13T01:03:03.824Z,18.97
2018-07-13T01:05:33.388Z,19.27
2018-07-13T01:08:02.491Z,20.10
2018-07-13T01:10:31.787Z,21.20
2018-07-13T01:13:00.859Z,20.63
2018-07-13T01:15:29.974Z,19.50
2018-07-13T01:17:59.270Z,21.67
2018-07-13T01:20:28.443Z,22.90
2018-07-13T01:22:58.506Z,19.60
2018-07-13T01:25:27.586Z,20.23
2018-07-13T01:27:57.600Z,19.60
2018-07-13T01:30:26.760Z,19.93
2018-07-13T01:32:55.959Z,21.63
2018-07-13T01:35:25.515Z,23.20
2018-07-13T01:37:54.731Z,21.73
2018-07-13T01:40:24.629Z,25.83
2018-07-13T01:42:53.809Z,21.60
2018-07-13T01:45:23.016Z,23.13
2018-07-13T01:47:52.341Z,23.73
2018-07-13T01:50:21.426Z,25.07
2018-07-13T01:52:50.739Z,24.97
2018-07-13T01:55:19.978Z,23.33
2018-07-13T01:57:49.207Z,24.33
2018-07-13T02:00:18.397Z,24.07
2018-07-13T02:02:47.599Z,26.00
2018-07-13T02:05:16.852Z,23.23
2018-07-13T02:07:46.062Z,22.47
2018-07-13T02:10:15.259Z,23.17
2018-07-13T02:12:44.494Z,23.53
2018-07-13T02:15:13.573Z,23.50
2018-07-13T02:17:43.484Z,25.03
2018-07-13T02:20:13.137Z,22.43
2018-07-13T02:22:42.260Z,21.40
2018-07-13T02:25:12.112Z,23.47
2018-07-13T02:27:41.907Z,22.23
2018-07-13T02:30:11.115Z,22.57
2018-07-13T02:32:40.318Z,22.23
2018-07-13T02:35:09.532Z,22.27
2018-07-13T02:37:38.844Z,21.80
2018-07-13T02:40:07.976Z,25.17
2018-07-13T02:42:37.989Z,25.03
2018-07-13T02:45:07.678Z,25.37
2018-07-13T02:47:37.147Z,22.30
2018-07-13T02:50:06.446Z,23.77
2018-07-13T02:52:35.537Z,24.40
2018-07-13T02:55:04.776Z,29.23
2018-07-13T02:57:33.922Z,25.13
2018-07-13T03:00:03.259Z,25.70
2018-07-13T03:02:32.434Z,24.80
2018-07-13T03:05:01.623Z,26.27
2018-07-13T03:07:30.927Z,26.17
2018-07-13T03:09:59.998Z,27.23
2018-07-13T03:12:29.132Z,25.37
2018-07-13T03:14:58.291Z,25.57
2018-07-13T03:17:27.456Z,27.47
2018-07-13T03:19:56.858Z,25.77
2018-07-13T03:22:25.926Z,27.30
2018-07-13T03:24:55.309Z,29.57
2018-07-13T03:27:24.398Z,26.23
2018-07-13T03:29:53.624Z,29.13
2018-07-13T03:32:22.717Z,27.30
2018-07-13T03:34:51.791Z,27.80
2018-07-13T03:37:21.013Z,29.70
2018-07-13T03:39:53.075Z,28.87
2018-07-13T03:42:22.386Z,27.70
2018-07-13T03:44:51.570Z,29.03
2018-07-13T03:47:20.767Z,32.60
2018-07-13T03:49:50.293Z,27.20
2018-07-13T03:52:19.634Z,26.43
2018-07-13T03:54:48.825Z,25.70
2018-07-13T03:57:17.901Z,27.40
2018-07-13T03:59:47.157Z,26.27
2018-07-13T04:02:16.464Z,27.47
2018-07-13T04:04:45.670Z,27.50
2018-07-13T04:07:14.833Z,27.83
2018-07-13T04:09:43.928Z,23.03
2018-07-13T04:12:13.176Z,28.37
2018-07-13T04:14:45.630Z,23.33
2018-07-13T04:17:15.046Z,23.27
2018-07-13T04:19:44.522Z,23.33
2018-07-13T04:22:13.877Z,22.80
2018-07-13T04:24:43.301Z,23.07
2018-07-13T04:27:13.038Z,23.00
2018-07-13T04:29:42.502Z,23.00
2018-07-13T04:32:12.186Z,22.27
2018-07-13T04:34:41.595Z,22.67
2018-07-13T04:37:11.220Z,23.10
2018-07-13T04:39:40.317Z,23.20
2018-07-13T04:42:10.088Z,22.60
2018-07-13T04:44:39.632Z,22.93
2018-07-13T04:47:08.908Z,23.37
2018-07-13T04:49:37.677Z,25.13
2018-07-13T04:52:06.855Z,23.30
2018-07-13T04:54:36.017Z,24.20
2018-07-13T04:57:05.254Z,21.43
2018-07-13T04:59:34.577Z,22.07
2018-07-13T05:02:05.540Z,21.73
2018-07-13T05:04:34.910Z,23.83
2018-07-13T05:07:04.764Z,22.53
2018-07-13T05:09:33.927Z,22.47
2018-07-13T05:12:03.263Z,23.50
2018-07-13T05:14:32.494Z,20.40
2018-07-13T05:17:01.866Z,21.03
2018-07-13T05:19:31.854Z,22.20
2018-07-13T05:22:01.097Z,25.50
2018-07-13T05:24:31.183Z,20.63
2018-07-13T05:27:00.537Z,20.87
2018-07-13T05:29:30.051Z,24.33
2018-07-13T05:31:59.187Z,20.40
2018-07-13T05:34:28.534Z,18.37
2018-07-13T05:36:57.980Z,20.63
2018-07-13T05:39:27.173Z,22.83
2018-07-13T05:41:56.783Z,19.77
2018-07-13T05:44:26.220Z,19.37
2018-07-13T05:46:55.955Z,22.30
2018-07-13T05:49:25.298Z,19.47
2018-07-13T05:51:55.044Z,17.80
2018-07-13T05:54:24.202Z,17.30
2018-07-13T05:56:54.074Z,21.57
2018-07-13T05:59:23.347Z,19.57
2018-07-13T06:01:52.557Z,19.83
2018-07-13T06:04:21.698Z,17.77
2018-07-13T06:06:50.871Z,16.70
2018-07-13T06:09:20.760Z,16.17
2018-07-13T06:11:50.220Z,17.33
2018-07-13T06:14:19.765Z,21.13
2018-07-13T06:16:48.838Z,16.53
2018-07-13T06:19:18.098Z,21.40
2018-07-13T06:21:47.826Z,17.20
2018-07-13T06:24:17.726Z,16.00
2018-07-13T06:26:46.822Z,17.20
2018-07-13T06:29:16.080Z,20.07
2018-07-13T06:31:45.380Z,16.43
2018-07-13T06:34:15.155Z,16.03
2018-07-13T06:36:44.289Z,16.97
2018-07-13T06:39:13.898Z,17.93
2018-07-13T06:41:43.731Z,17.90
2018-07-13T06:44:12.902Z,20.37
2018-07-13T06:46:45.714Z,15.03
2018-07-13T06:49:15.582Z,17.53
2018-07-13T06:51:45.857Z,19.23
2018-07-13T06:54:14.994Z,15.23
2018-07-13T06:56:44.323Z,16.20
2018-07-13T06:59:15.235Z,16.03
2018-07-13T07:01:45.050Z,18.93
2018-07-13T07:04:37.628Z,15.50
2018-07-13T07:07:15.233Z,15.40
2018-07-13T07:09:48.862Z,13.47
2018-07-13T07:12:40.340Z,15.73
2018-07-13T07:15:09.533Z,13.83
2018-07-13T07:17:38.756Z,16.10
2018-07-13T07:20:08.129Z,14.00
2018-07-13T07:22:37.488Z,16.67
2018-07-13T07:25:06.943Z,12.90
2018-07-13T07:27:36.820Z,16.93
2018-07-13T07:30:05.914Z,11.93
2018-07-13T07:32:35.135Z,11.50
2018-07-13T07:35:04.342Z,8.70
2018-07-13T07:37:33.110Z,12.30
2018-07-13T07:40:02.308Z,11.47
2018-07-13T07:42:31.713Z,12.40
2018-07-13T07:45:01.109Z,16.97
2018-07-13T07:47:30.307Z,11.10
2018-07-13T07:49:59.893Z,12.80
2018-07-13T07:52:29.226Z,11.47
2018-07-13T07:54:58.424Z,10.93
2018-07-13T07:57:28.202Z,12.13
2018-07-13T07:59:57.253Z,10.70
2018-07-13T08:02:26.536Z,8.93
2018-07-13T08:04:55.764Z,12.43
2018-07-13T08:07:25.032Z,11.17
2018-07-13T08:09:54.364Z,8.37
2018-07-13T08:12:23.458Z,11.00
2018-07-13T08:14:52.712Z,9.97
2018-07-13T08:17:21.940Z,7.23
2018-07-13T08:19:51.279Z,9.47
2018-07-13T08:22:56.351Z,8.27
2018-07-13T08:25:27.235Z,10.67
2018-07-13T08:28:00.353Z,8.80
2018-07-13T08:30:32.989Z,7.50
2018-07-13T08:33:02.381Z,6.97
2018-07-13T08:35:32.478Z,7.03
2018-07-13T08:38:02.102Z,5.50
2018-07-13T08:40:31.305Z,6.07
2018-07-13T08:43:00.562Z,6.47
2018-07-13T08:45:29.651Z,4.87
2018-07-13T08:47:58.883Z,4.40
2018-07-13T08:50:28.596Z,10.60
2018-07-13T08:52:58.729Z,7.63
2018-07-13T08:55:27.960Z,8.50
2018-07-13T08:57:57.177Z,7.43
2018-07-13T09:00:26.310Z,6.47
2018-07-13T09:02:56.658Z,6.00
2018-07-13T09:05:25.860Z,6.27
2018-07-13T09:07:54.944Z,4.50
2018-07-13T09:10:24.831Z,6.10
2018-07-13T09:12:54.742Z,8.23
2018-07-13T09:15:24.076Z,7.17
2018-07-13T09:17:53.298Z,6.83
2018-07-13T09:20:22.588Z,6.50
2018-07-13T09:22:51.751Z,6.53
2018-07-13T09:25:20.844Z,7.37
2018-07-13T09:27:50.029Z,5.60
2018-07-13T09:30:19.271Z,7.20
2018-07-13T09:32:48.538Z,5.73
2018-07-13T09:35:17.753Z,6.27
2018-07-13T09:37:46.932Z,9.13
2018-07-13T09:40:16.120Z,8.50
2018-07-13T09:42:45.291Z,8.17
2018-07-13T09:45:14.429Z,5.80
2018-07-13T09:47:43.639Z,6.27
2018-07-13T09:50:12.723Z,7.10
2018-07-13T09:52:41.854Z,7.20
2018-07-13T09:55:11.095Z,4.37
2018-07-13T09:57:40.529Z,4.97
2018-07-13T10:00:11.773Z,7.57
2018-07-13T10:02:41.018Z,7.23
2018-07-13T10:05:10.509Z,5.23
2018-07-13T10:07:39.860Z,5.07
2018-07-13T10:10:09.189Z,5.53
2018-07-13T10:12:38.691Z,5.00
2018-07-13T10:15:08.985Z,6.03
2018-07-13T10:17:38.148Z,5.33
2018-07-13T10:20:07.426Z,6.27
2018-07-13T10:22:37.504Z,8.70
2018-07-13T10:25:06.632Z,8.53
2018-07-13T10:27:37.571Z,5.70
2018-07-13T10:30:09.837Z,8.87
2018-07-13T10:32:38.969Z,6.53
2018-07-13T10:35:08.597Z,5.43
2018-07-13T10:37:38.078Z,5.57
2018-07-13T10:40:07.242Z,4.27
2018-07-13T10:42:36.312Z,4.00
2018-07-13T10:45:05.743Z,4.73
2018-07-13T10:47:34.989Z,4.87
2018-07-13T10:50:04.167Z,5.13
2018-07-13T10:52:33.070Z,3.90
2018-07-13T10:55:02.318Z,4.43
2018-07-13T10:57:32.096Z,5.07
2018-07-13T11:00:01.472Z,4.17
2018-07-13T11:02:30.624Z,5.60
2018-07-13T11:04:59.974Z,6.25
2018-07-13T11:07:29.188Z,5.13
2018-07-13T11:09:58.421Z,5.47
2018-07-13T11:12:27.795Z,3.98
2018-07-13T11:14:57.427Z,4.35
2018-07-13T11:17:26.754Z,5.40
2018-07-13T11:19:55.817Z,7.05
2018-07-13T11:22:25.052Z,3.20
2018-07-13T11:24:54.388Z,5.50
2018-07-13T11:27:23.634Z,4.75
2018-07-13T11:29:53.340Z,5.77
2018-07-13T11:32:22.456Z,4.97
2018-07-13T11:34:51.505Z,4.50
2018-07-13T11:37:20.894Z,5.22
2018-07-13T11:39:49.887Z,6.87
2018-07-13T11:42:19.151Z,5.40
2018-07-13T11:44:48.439Z,6.55
2018-07-13T11:47:17.504Z,4.45
2018-07-13T11:49:47.122Z,4.95
2018-07-13T11:52:16.542Z,6.30
2018-07-13T11:54:46.059Z,4.62
2018-07-13T11:57:15.468Z,6.40
2018-07-13T11:59:44.798Z,3.87
2018-07-13T12:02:14.102Z,4.17
2018-07-13T12:04:43.266Z,5.05
2018-07-13T12:07:12.324Z,5.75
2018-07-13T12:09:41.660Z,5.15
2018-07-13T12:12:11.273Z,5.28
2018-07-13T12:14:43.347Z,7.45
2018-07-13T12:17:12.709Z,8.60
2018-07-13T12:19:41.882Z,5.47
2018-07-13T12:22:11.105Z,5.22
2018-07-13T12:24:40.551Z,8.10
2018-07-13T12:27:10.587Z,6.95
2018-07-13T12:29:39.644Z,6.17
2018-07-13T12:32:08.947Z,5.33
2018-07-13T12:34:38.136Z,6.47
2018-07-13T12:37:07.415Z,4.47
2018-07-13T12:39:36.512Z,7.30
2018-07-13T12:42:05.760Z,6.27
2018-07-13T12:44:35.164Z,4.20
2018-07-13T12:47:04.226Z,5.15
2018-07-13T12:49:33.442Z,3.10
2018-07-13T12:52:02.657Z,5.50
2018-07-13T12:54:31.981Z,5.10
2018-07-13T12:57:01.052Z,4.10
2018-07-13T12:59:31.014Z,7.65
2018-07-13T13:02:00.140Z,5.00
2018-07-13T13:04:29.346Z,6.60
2018-07-13T13:06:58.535Z,7.30
2018-07-13T13:09:27.609Z,6.65
2018-07-13T13:11:56.855Z,7.90
2018-07-13T13:14:25.916Z,6.58
2018-07-13T13:16:55.066Z,8.35
2018-07-13T13:19:24.221Z,3.50
2018-07-13T13:21:53.494Z,4.20
2018-07-13T13:24:22.601Z,7.58
2018-07-13T13:26:51.770Z,5.65
2018-07-13T13:29:21.808Z,4.78
2018-07-13T13:31:50.985Z,5.10
2018-07-13T13:34:20.302Z,4.20
2018-07-13T13:36:49.530Z,4.28
2018-07-13T13:39:18.717Z,7.22
2018-07-13T13:41:47.961Z,6.58
2018-07-13T13:44:17.100Z,3.50
2018-07-13T13:46:46.205Z,4.20
2018-07-13T13:49:15.934Z,3.00
2018-07-13T13:51:45.164Z,3.60
2018-07-13T13:54:14.615Z,3.00
2018-07-13T13:56:43.829Z,3.90
2018-07-13T13:59:13.407Z,3.50
2018-07-13T14:01:42.468Z,2.50
2018-07-13T14:04:12.590Z,4.15
2018-07-13T14:06:41.711Z,3.05
2018-07-13T14:09:10.884Z,5.03
2018-07-13T14:11:40.016Z,3.70
2018-07-13T14:14:09.539Z,6.17
2018-07-13T14:16:39.186Z,4.17
2018-07-13T14:19:08.455Z,4.92
2018-07-13T14:21:37.625Z,2.95
2018-07-13T14:24:06.951Z,5.65
2018-07-13T14:26:36.119Z,5.30
2018-07-13T14:29:05.712Z,6.80
2018-07-13T14:31:35.834Z,3.45
2018-07-13T14:34:05.132Z,5.17
2018-07-13T14:36:34.339Z,5.53
2018-07-13T14:39:03.878Z,4.78
2018-07-13T14:41:32.948Z,5.33
2018-07-13T14:44:02.202Z,5.20
2018-07-13T14:46:31.243Z,5.25
2018-07-13T14:49:00.569Z,5.62
2018-07-13T14:51:29.875Z,8.58
2018-07-13T14:53:59.626Z,5.03
2018-07-13T14:56:29.273Z,6.37
2018-07-13T14:58:58.632Z,4.42
2018-07-13T15:01:28.208Z,5.28
2018-07-13T15:03:57.366Z,5.83
2018-07-13T15:06:27.002Z,3.37
2018-07-13T15:08:56.188Z,3.92
2018-07-13T15:11:25.718Z,4.62
2018-07-13T15:13:54.906Z,3.67
2018-07-13T15:16:24.237Z,4.17
2018-07-13T15:18:53.317Z,5.05
2018-07-13T15:21:22.205Z,4.05
2018-07-13T15:23:51.204Z,3.22
2018-07-13T15:26:20.462Z,4.20
2018-07-13T15:28:49.701Z,4.22
2018-07-13T15:31:19.494Z,4.65
2018-07-13T15:33:48.683Z,3.30
2018-07-13T15:36:17.895Z,2.45
2018-07-13T15:38:47.192Z,4.30
2018-07-13T15:41:16.436Z,4.90
2018-07-13T15:43:45.761Z,3.52
2018-07-13T15:46:15.132Z,4.00
2018-07-13T15:48:45.049Z,3.30
2018-07-13T15:51:14.225Z,3.77
2018-07-13T15:53:43.403Z,4.30
2018-07-13T15:56:12.727Z,2.60
2018-07-13T15:58:41.617Z,3.08
2018-07-13T16:01:10.997Z,3.80
2018-07-13T16:03:40.322Z,2.62
2018-07-13T16:06:12.570Z,4.75
2018-07-13T16:08:41.625Z,3.45
2018-07-13T16:11:10.988Z,3.42
2018-07-13T16:13:40.164Z,2.98
2018-07-13T16:16:09.545Z,3.10
2018-07-13T16:18:38.614Z,3.50
2018-07-13T16:21:07.771Z,4.17
2018-07-13T16:23:36.911Z,3.12
2018-07-13T16:26:06.319Z,3.08
2018-07-13T16:28:35.665Z,3.60
2018-07-13T16:31:04.836Z,4.58
2018-07-13T16:33:34.710Z,3.60
2018-07-13T16:36:03.871Z,3.75
2018-07-13T16:38:33.968Z,5.72
2018-07-13T16:41:03.169Z,2.85
2018-07-13T16:43:32.277Z,2.77
2018-07-13T16:46:01.414Z,4.72
2018-07-13T16:48:30.731Z,3.92
2018-07-13T16:50:59.853Z,4.97
2018-07-13T16:53:29.078Z,5.60
2018-07-13T16:55:58.529Z,6.47
2018-07-13T16:58:27.815Z,4.58
2018-07-13T17:00:57.500Z,4.65
2018-07-13T17:03:26.645Z,6.60
2018-07-13T17:05:55.872Z,4.22
2018-07-13T17:08:25.212Z,4.97
2018-07-13T17:10:54.600Z,4.97
2018-07-13T17:13:23.717Z,6.92
2018-07-13T17:15:53.090Z,5.35
2018-07-13T17:18:22.925Z,5.83
2018-07-13T17:20:52.001Z,5.30
2018-07-13T17:23:21.328Z,6.53
2018-07-13T17:25:51.067Z,6.58
2018-07-13T17:28:20.162Z,8.58
2018-07-13T17:30:49.370Z,5.35
2018-07-13T17:33:18.555Z,5.65
2018-07-13T17:35:48.515Z,3.58
2018-07-13T17:38:17.729Z,4.92
2018-07-13T17:40:47.315Z,5.58
2018-07-13T17:43:16.483Z,5.00
2018-07-13T17:45:45.592Z,7.12
2018-07-13T17:48:14.809Z,4.45
2018-07-13T17:50:43.935Z,4.47
2018-07-13T17:53:13.037Z,5.12
2018-07-13T17:55:42.222Z,5.42
2018-07-13T17:58:11.539Z,4.12
2018-07-13T18:00:40.969Z,5.67
2018-07-13T18:03:10.270Z,4.75
2018-07-13T18:05:39.473Z,5.10
2018-07-13T18:08:08.588Z,5.45
2018-07-13T18:10:37.401Z,4.62
2018-07-13T18:13:06.402Z,6.10
2018-07-13T18:15:35.405Z,3.70
2018-07-13T18:18:04.126Z,3.92
2018-07-13T18:20:33.248Z,4.62
2018-07-13T18:23:02.419Z,5.90
2018-07-13T18:25:31.627Z,5.20
2018-07-13T18:28:00.739Z,7.33
2018-07-13T18:30:30.122Z,9.55
2018-07-13T18:33:00.053Z,8.50
2018-07-13T18:35:29.160Z,7.07
2018-07-13T18:37:58.358Z,7.60
2018-07-13T18:40:27.769Z,7.87
2018-07-13T18:42:56.975Z,7.37
2018-07-13T18:45:26.128Z,9.57
2018-07-13T18:47:55.934Z,8.73
2018-07-13T18:50:25.161Z,8.77
2018-07-13T18:52:54.862Z,9.20
2018-07-13T18:55:24.083Z,11.17
2018-07-13T18:57:53.233Z,8.53
2018-07-13T19:00:22.368Z,9.07
2018-07-13T19:02:51.600Z,7.77
2018-07-13T19:05:20.974Z,9.67
2018-07-13T19:07:50.325Z,8.00
2018-07-13T19:10:19.742Z,7.63
2018-07-13T19:12:48.867Z,9.27
2018-07-13T19:15:18.123Z,7.63
2018-07-13T19:17:47.214Z,9.57
2018-07-13T19:20:16.585Z,7.47
2018-07-13T19:22:45.822Z,10.33
2018-07-13T19:25:15.118Z,7.83
2018-07-13T19:27:44.522Z,9.53
2018-07-13T19:30:13.667Z,6.67
2018-07-13T19:32:43.345Z,9.63
2018-07-13T19:35:12.704Z,7.30
2018-07-13T19:37:42.046Z,11.87
2018-07-13T19:40:11.241Z,14.40
2018-07-13T19:42:40.678Z,7.07
2018-07-13T19:45:09.866Z,8.13
2018-07-13T19:47:39.141Z,9.63
2018-07-13T19:50:08.289Z,11.40
2018-07-13T19:52:37.476Z,10.00
2018-07-13T19:55:07.394Z,7.47
2018-07-13T19:57:36.508Z,10.27
2018-07-13T20:00:06.135Z,8.20
2018-07-13T20:02:35.363Z,11.37
2018-07-13T20:05:05.756Z,8.40
2018-07-13T20:07:34.988Z,8.50
2018-07-13T20:10:04.289Z,8.73
2018-07-13T20:12:33.669Z,8.30
2018-07-13T20:15:03.032Z,7.63
2018-07-13T20:17:32.155Z,11.10
2018-07-13T20:20:01.165Z,9.73
2018-07-13T20:22:30.307Z,8.03
2018-07-13T20:24:59.438Z,10.83
2018-07-13T20:27:28.618Z,12.07
2018-07-13T20:29:57.808Z,9.67
2018-07-13T20:32:27.638Z,11.17
2018-07-13T20:34:56.777Z,7.87
2018-07-13T20:37:25.913Z,9.43
2018-07-13T20:39:54.848Z,8.60
2018-07-13T20:42:24.120Z,8.37
2018-07-13T20:44:53.312Z,9.17
2018-07-13T20:47:22.616Z,8.63
2018-07-13T20:49:51.733Z,10.50
2018-07-13T20:52:20.964Z,8.53
2018-07-13T20:54:50.074Z,9.57
2018-07-13T20:57:19.522Z,9.80
2018-07-13T20:59:49.574Z,9.80
2018-07-13T21:02:18.947Z,10.17
2018-07-13T21:04:48.216Z,10.20
2018-07-13T21:07:17.359Z,12.70
2018-07-13T21:09:46.654Z,9.37
2018-07-13T21:12:15.762Z,9.50
2018-07-13T21:14:45.422Z,9.17
2018-07-13T21:17:14.662Z,9.20
2018-07-13T21:19:43.746Z,10.10
2018-07-13T21:22:12.915Z,10.43
2018-07-13T21:24:42.198Z,11.50
2018-07-13T21:27:11.935Z,9.93
2018-07-13T21:29:41.570Z,12.50
2018-07-13T21:32:10.777Z,9.87
2018-07-13T21:34:40.765Z,9.83
2018-07-13T21:37:10.199Z,12.47
2018-07-13T21:39:39.366Z,9.70
2018-07-13T21:42:08.854Z,10.33
2018-07-13T21:44:37.970Z,11.27
2018-07-13T21:47:06.823Z,11.87
2018-07-13T21:49:36.132Z,10.70
2018-07-13T21:52:05.335Z,11.47
2018-07-13T21:54:34.445Z,9.70
2018-07-13T21:57:03.723Z,12.37
2018-07-13T21:59:32.930Z,9.13
2018-07-13T22:02:02.436Z,11.33
2018-07-13T22:04:31.504Z,9.37
2018-07-13T22:07:00.713Z,10.63
2018-07-13T22:09:30.133Z,11.00
2018-07-13T22:11:59.374Z,11.27
2018-07-13T22:14:28.687Z,10.87
2018-07-13T22:16:58.026Z,9.60
2018-07-13T22:19:27.331Z,13.57
2018-07-13T22:21:56.527Z,11.57
2018-07-13T22:24:25.659Z,10.87
2018-07-13T22:26:54.899Z,11.23
2018-07-13T22:29:25.270Z,11.67
2018-07-13T22:31:54.664Z,10.97
2018-07-13T22:34:23.779Z,9.90
2018-07-13T22:36:53.591Z,10.70
2018-07-13T22:39:22.806Z,11.97
2018-07-13T22:41:52.063Z,11.23
2018-07-13T22:44:21.197Z,11.20
2018-07-13T22:46:50.584Z,12.23
2018-07-13T22:49:19.717Z,11.23
2018-07-13T22:51:48.924Z,12.77
2018-07-13T22:54:18.165Z,11.67
2018-07-13T22:56:47.297Z,10.80
2018-07-13T22:59:17.218Z,10.40
2018-07-13T23:01:46.744Z,10.20
2018-07-13T23:04:15.970Z,10.47
2018-07-13T23:06:45.304Z,9.87
2018-07-13T23:09:14.420Z,10.33
2018-07-13T23:11:43.864Z,11.80
2018-07-13T23:14:13.302Z,11.47
2018-07-13T23:16:42.391Z,10.30
2018-07-13T23:19:11.671Z,10.33
2018-07-13T23:21:40.857Z,12.03
2018-07-13T23:24:10.393Z,10.33
2018-07-13T23:26:40.054Z,11.07
2018-07-13T23:29:09.266Z,10.07
2018-07-13T23:31:39.618Z,12.67
2018-07-13T23:34:08.816Z,11.60
2018-07-13T23:36:37.951Z,10.20
2018-07-13T23:39:07.126Z,11.67
2018-07-13T23:41:36.266Z,12.07
2018-07-13T23:44:06.131Z,11.50
2018-07-13T23:46:35.453Z,10.57
2018-07-13T23:49:04.959Z,12.33
2018-07-13T23:51:34.233Z,10.80
2018-07-13T23:54:03.328Z,10.93
2018-07-13T23:56:32.554Z,11.17
2018-07-13T23:59:01.901Z,12.43
